Time;durP1;ratioP1;P1;durP2;ratioP2;P2;SDS_P1;SDS_P2;PMS_P1;PMS_P2;Temp;Humidity;BMP_temperature;BMP_pressure;BME280_temperature;BME280_humidity;BME280_pressure;Samples;Min_cycle;Max_cycle;Signal;HPM_P1;HPM_P2
2022/03/17 00:00:15;;;;;;;30.05;26.88;;;;;;;9.99;73.01;101863.59;1043525;28;20307;-78
2022/03/17 00:00:47;;;;;;;28.13;24.83;;;;;;;9.97;73.38;101864.81;1043427;28;20364;-78
2022/03/17 00:01:19;;;;;;;27.80;25.27;;;;;;;9.91;73.15;101867.22;1043618;28;20303;-78
2022/03/17 00:01:51;;;;;;;28.05;25.23;;;;;;;9.94;73.56;101871.34;1038054;28;20292;-79
2022/03/17 00:02:26;;;;;;;28.52;25.73;;;;;;;9.94;73.19;101870.50;1043523;28;20299;-78
2022/03/17 00:02:57;;;;;;;29.40;26.58;;;;;;;9.96;73.01;101858.66;1039218;28;20326;-78
2022/03/17 00:03:29;;;;;;;29.05;25.80;;;;;;;9.95;72.95;101867.66;1040683;28;20291;-79
2022/03/17 00:04:00;;;;;;;30.42;27.15;;;;;;;9.95;73.80;101869.50;1043256;28;20326;-79
2022/03/17 00:04:33;;;;;;;31.92;26.02;;;;;;;9.94;73.59;101867.84;1043589;28;20306;-78
2022/03/17 00:05:08;;;;;;;29.70;26.63;;;;;;;10.00;73.78;101872.41;1043923;28;20306;-78
2022/03/17 00:05:40;;;;;;;29.95;26.90;;;;;;;9.94;74.03;101866.00;1044045;28;20337;-79
2022/03/17 00:06:12;;;;;;;29.40;26.40;;;;;;;9.95;74.03;101862.34;1043809;28;20659;-78
2022/03/17 00:06:44;;;;;;;29.63;26.63;;;;;;;9.94;73.52;101859.88;1043725;28;20296;-79
2022/03/17 00:07:15;;;;;;;28.38;25.45;;;;;;;9.90;73.81;101870.06;1044053;28;20655;-79
2022/03/17 00:07:47;;;;;;;29.60;26.73;;;;;;;9.88;73.84;101862.25;1043714;28;20784;-78
2022/03/17 00:08:19;;;;;;;31.35;28.00;;;;;;;9.88;73.82;101867.59;1043362;28;20307;-78
2022/03/17 00:08:50;;;;;;;30.75;27.55;;;;;;;9.85;74.66;101869.75;1043268;28;20385;-79
2022/03/17 00:09:22;;;;;;;29.58;26.42;;;;;;;9.84;74.52;101865.47;1041208;28;20660;-79
2022/03/17 00:09:54;;;;;;;31.58;28.33;;;;;;;9.87;74.10;101859.78;1043423;28;20311;-79
2022/03/17 00:10:25;;;;;;;30.20;26.95;;;;;;;9.92;73.99;101862.72;1043803;28;20299;-78
2022/03/17 00:10:57;;;;;;;30.40;27.30;;;;;;;9.94;73.79;101863.34;1043553;28;20295;-78
2022/03/17 00:11:29;;;;;;;28.85;25.85;;;;;;;9.92;73.92;101862.72;1039877;28;20299;-79
2022/03/17 00:12:00;;;;;;;29.17;25.70;;;;;;;9.87;74.40;101867.78;1043460;28;20306;-78
2022/03/17 00:12:32;;;;;;;31.08;27.92;;;;;;;9.88;73.86;101861.44;1043617;28;20802;-79
2022/03/17 00:13:04;;;;;;;32.10;27.98;;;;;;;9.87;73.82;101867.78;1039947;28;20315;-79
2022/03/17 00:13:35;;;;;;;31.50;28.15;;;;;;;9.86;74.37;101858.97;1039195;28;20338;-78
2022/03/17 00:14:07;;;;;;;29.25;26.33;;;;;;;9.89;73.91;101863.91;1039408;28;20292;-77
2022/03/17 00:14:39;;;;;;;29.23;26.23;;;;;;;9.90;73.83;101860.25;1040048;28;20347;-78
2022/03/17 00:15:11;;;;;;;30.33;27.33;;;;;;;9.99;74.21;101855.63;1039681;28;20667;-78
2022/03/17 00:15:43;;;;;;;30.88;27.88;;;;;;;9.96;73.63;101857.84;1039583;28;20748;-78
2022/03/17 00:16:15;;;;;;;32.10;28.98;;;;;;;9.96;74.11;101866.66;1039332;28;20802;-78
2022/03/17 00:16:47;;;;;;;33.20;28.35;;;;;;;9.95;73.76;101857.00;1039938;28;20299;-78
2022/03/17 00:17:19;;;;;;;32.13;28.73;;;;;;;9.97;74.14;101849.66;1043526;28;20310;-78
2022/03/17 00:17:50;;;;;;;31.73;28.42;;;;;;;9.92;74.12;101857.38;1043701;28;20356;-78
2022/03/17 00:18:22;;;;;;;30.67;26.73;;;;;;;10.00;73.75;101853.78;1043848;28;20833;-78
2022/03/17 00:18:55;;;;;;;30.50;27.40;;;;;;;9.98;73.90;101853.97;1043726;28;20304;-79
2022/03/17 00:19:28;;;;;;;31.48;28.40;;;;;;;9.98;73.50;101856.63;1043737;28;20288;-79
2022/03/17 00:19:59;;;;;;;33.40;28.38;;;;;;;9.95;73.57;101857.00;1043825;28;20291;-78
2022/03/17 00:20:31;;;;;;;32.50;28.02;;;;;;;9.94;73.93;101854.53;1043700;28;20303;-78
2022/03/17 00:21:03;;;;;;;32.88;29.55;;;;;;;9.94;74.74;101863.34;1039672;28;20320;-79
2022/03/17 00:21:36;;;;;;;33.08;29.88;;;;;;;9.90;75.18;101864.75;1035415;28;20320;-78
2022/03/17 00:22:08;;;;;;;31.08;28.02;;;;;;;9.95;74.43;101859.66;1034562;28;20305;-78
2022/03/17 00:22:40;;;;;;;32.67;29.17;;;;;;;10.03;74.19;101853.41;1036499;28;20504;-78
2022/03/17 00:23:12;;;;;;;31.75;28.45;;;;;;;10.04;73.60;101860.38;1043681;28;20678;-77
2022/03/17 00:23:43;;;;;;;33.38;28.30;;;;;;;10.09;73.46;101858.78;1043720;28;20296;-79
2022/03/17 00:24:15;;;;;;;32.28;29.15;;;;;;;10.07;73.75;101855.50;1043712;28;20291;-79
2022/03/17 00:24:46;;;;;;;33.50;30.10;;;;;;;10.06;73.52;101853.84;1043737;28;20295;-78
2022/03/17 00:25:18;;;;;;;32.65;29.40;;;;;;;10.04;74.15;101857.72;1043536;28;20298;-79
2022/03/17 00:25:49;;;;;;;30.23;27.23;;;;;;;10.11;73.14;101859.44;1043388;28;20299;-79
2022/03/17 00:26:21;;;;;;;32.75;29.58;;;;;;;10.12;73.67;101854.94;1043569;28;20295;-78
2022/03/17 00:26:53;;;;;;;33.97;30.50;;;;;;;10.07;73.70;101852.84;1039871;28;20409;-78
2022/03/17 00:27:25;;;;;;;33.17;29.80;;;;;;;10.09;73.95;101858.78;1035000;28;20309;-79
2022/03/17 00:27:57;;;;;;;33.38;29.90;;;;;;;10.04;73.63;101853.22;1031531;28;20308;-79
2022/03/17 00:28:29;;;;;;;34.47;31.05;;;;;;;10.09;74.35;101853.47;1029686;28;20409;-79
2022/03/17 00:29:07;;;;;;;31.10;28.23;;;;;;;10.08;73.83;101851.81;1037215;28;20439;-78
2022/03/17 00:29:40;;;;;;;32.20;28.88;;;;;;;10.12;73.66;101853.09;1040954;28;20388;-79
2022/03/17 00:30:11;;;;;;;32.95;29.65;;;;;;;10.14;73.93;101855.59;1038966;28;20310;-78
2022/03/17 00:30:43;;;;;;;33.42;29.55;;;;;;;10.12;73.58;101853.09;1039410;28;20288;-79
2022/03/17 00:31:16;;;;;;;34.17;30.67;;;;;;;10.12;74.16;101853.09;1040452;28;20296;-79
2022/03/17 00:31:47;;;;;;;33.45;30.05;;;;;;;10.17;73.71;101856.03;1043411;28;20346;-78
2022/03/17 00:32:20;;;;;;;35.30;31.02;;;;;;;10.14;74.25;101856.41;1043867;28;20302;-79
2022/03/17 00:32:52;;;;;;;34.60;31.15;;;;;;;10.12;74.31;101853.09;1041415;28;20292;-78
2022/03/17 00:33:24;;;;;;;34.42;31.13;;;;;;;10.12;73.76;101857.59;1043727;28;20306;-79
2022/03/17 00:33:55;;;;;;;34.10;30.73;;;;;;;10.15;73.94;101850.09;1043456;28;20295;-78
2022/03/17 00:34:27;;;;;;;32.58;29.25;;;;;;;10.19;73.58;101854.00;1043549;28;20303;-78
2022/03/17 00:35:48;;;;;;;30.10;26.83;;;;;;;10.31;73.54;101850.88;1039447;28;21298;-78
2022/03/17 00:36:20;;;;;;;34.08;30.35;;;;;;;10.30;72.97;101846.56;1039704;28;20299;-78
2022/03/17 00:36:51;;;;;;;32.22;28.98;;;;;;;10.27;73.03;101853.09;1043553;28;20310;-78
2022/03/17 00:37:24;;;;;;;32.90;29.52;;;;;;;10.25;73.10;101848.97;1043746;28;20295;-78
2022/03/17 00:37:55;;;;;;;33.58;29.40;;;;;;;10.33;73.29;101847.00;1044040;28;20291;-78
2022/03/17 00:38:27;;;;;;;35.08;31.35;;;;;;;10.32;73.38;101853.34;1043508;28;20358;-79
2022/03/17 00:38:58;;;;;;;33.58;29.92;;;;;;;10.34;73.07;101842.50;1043798;28;20307;-78
2022/03/17 00:39:30;;;;;;;35.63;31.90;;;;;;;10.26;73.16;101850.63;1043556;28;20299;-78
2022/03/17 00:40:02;;;;;;;35.28;31.67;;;;;;;10.25;72.92;101844.47;1043515;28;20723;-78
2022/03/17 00:40:36;;;;;;;33.20;29.27;;;;;;;10.31;73.16;101841.03;1043260;28;20310;-79
2022/03/17 00:41:08;;;;;;;33.65;29.92;;;;;;;10.29;72.97;101843.06;1043512;28;20921;-78
2022/03/17 00:41:40;;;;;;;36.33;32.53;;;;;;;10.23;73.46;101853.66;1043955;28;20291;-78
2022/03/17 00:42:12;;;;;;;38.35;32.03;;;;;;;10.21;73.95;101846.69;1043185;28;20299;-79
2022/03/17 00:42:44;;;;;;;35.15;31.60;;;;;;;10.24;73.83;101848.16;1043282;28;20326;-78
2022/03/17 00:43:16;;;;;;;35.67;32.08;;;;;;;10.23;73.91;101848.34;1043713;28;20291;-78
2022/03/17 00:43:47;;;;;;;34.00;30.55;;;;;;;10.21;73.73;101841.38;1043276;28;20295;-78
2022/03/17 00:44:19;;;;;;;34.92;31.35;;;;;;;10.26;73.98;101848.78;1043534;28;20777;-78
2022/03/17 00:44:51;;;;;;;37.65;31.80;;;;;;;10.23;73.82;101838.50;1043881;28;20344;-78
2022/03/17 00:45:23;;;;;;;35.50;31.63;;;;;;;10.21;73.77;101836.03;1043770;28;20350;-79
2022/03/17 00:45:55;;;;;;;33.53;30.25;;;;;;;10.23;73.33;101843.00;1043790;28;20311;-78
2022/03/17 00:46:27;;;;;;;36.70;32.92;;;;;;;10.28;73.70;101845.94;1043199;28;20787;-79
2022/03/17 00:46:58;;;;;;;37.42;31.80;;;;;;;10.24;74.00;101839.34;1043778;28;20285;-78
2022/03/17 00:47:30;;;;;;;34.45;30.85;;;;;;;10.30;73.73;101841.22;1043715;28;20394;-78
2022/03/17 00:48:04;;;;;;;34.20;30.85;;;;;;;10.28;74.01;101835.28;1043516;28;20295;-79
2022/03/17 00:48:35;;;;;;;35.40;31.58;;;;;;;10.25;74.28;101835.66;1043782;28;20298;-78
2022/03/17 00:49:07;;;;;;;35.35;31.83;;;;;;;10.27;73.65;101839.78;1043211;28;20310;-78
2022/03/17 00:49:39;;;;;;;35.30;31.70;;;;;;;10.31;73.83;101837.56;1043442;28;20295;-79
2022/03/17 00:50:11;;;;;;;33.15;29.73;;;;;;;10.23;74.36;101833.19;1043648;28;20283;-78
2022/03/17 00:50:43;;;;;;;35.97;32.17;;;;;;;10.27;73.39;101836.28;1040997;28;20307;-78
2022/03/17 00:51:15;;;;;;;34.55;30.88;;;;;;;10.25;73.81;101841.81;1043415;28;20299;-79
2022/03/17 00:51:47;;;;;;;33.47;30.15;;;;;;;10.27;73.77;101833.63;1043481;28;20299;-78
2022/03/17 00:52:20;;;;;;;35.78;32.00;;;;;;;10.24;73.89;101836.66;1043369;28;20402;-78
2022/03/17 00:52:52;;;;;;;40.22;31.73;;;;;;;10.30;73.72;101838.56;1040081;28;20302;-78
2022/03/17 00:53:24;;;;;;;34.90;30.88;;;;;;;10.28;74.25;101840.59;1043396;28;20299;-79
2022/03/17 00:53:56;;;;;;;34.85;31.50;;;;;;;10.32;74.59;101839.19;1040253;28;20295;-78
2022/03/17 00:54:28;;;;;;;34.28;30.95;;;;;;;10.23;73.95;101843.00;1040920;28;20304;-79
2022/03/17 00:54:59;;;;;;;35.28;31.67;;;;;;;10.26;74.27;101837.31;1044200;28;20298;-78
2022/03/17 00:55:31;;;;;;;36.75;32.03;;;;;;;10.25;74.51;101840.97;1040661;28;20307;-79
2022/03/17 00:56:05;;;;;;;34.33;30.83;;;;;;;10.21;74.37;101841.38;1041942;28;20783;-78
2022/03/17 00:56:37;;;;;;;35.78;32.38;;;;;;;10.23;74.70;101837.69;1044328;28;20306;-78
2022/03/17 00:57:09;;;;;;;36.70;32.95;;;;;;;10.17;75.21;101837.41;1043982;28;20711;-78
2022/03/17 00:57:41;;;;;;;35.92;32.30;;;;;;;10.15;75.74;101836.78;1044463;28;20291;-79
2022/03/17 00:58:12;;;;;;;35.78;32.05;;;;;;;10.14;75.62;101835.13;1044414;28;20295;-78
2022/03/17 00:58:46;;;;;;;36.08;32.42;;;;;;;10.18;75.30;101839.06;1039863;28;20300;-78
2022/03/17 00:59:18;;;;;;;36.78;31.95;;;;;;;10.12;75.18;101837.13;1040778;28;20296;-78
2022/03/17 00:59:50;;;;;;;37.17;33.22;;;;;;;10.12;75.30;101839.78;1040167;28;20633;-78
2022/03/17 01:00:22;;;;;;;34.97;31.30;;;;;;;10.15;75.86;101838.59;1040941;28;20298;-78
2022/03/17 01:00:54;;;;;;;34.53;30.90;;;;;;;10.17;75.43;101837.41;1039942;28;20299;-78
2022/03/17 01:01:25;;;;;;;36.47;32.92;;;;;;;10.14;75.58;101835.13;1040615;28;20319;-79
2022/03/17 01:01:57;;;;;;;36.60;33.00;;;;;;;10.15;75.06;101828.78;1039993;28;20311;-79
2022/03/17 01:02:29;;;;;;;37.30;33.35;;;;;;;10.18;75.07;101836.38;1040700;28;20341;-79
2022/03/17 01:03:01;;;;;;;35.80;32.22;;;;;;;10.20;74.65;101834.38;1044054;28;20306;-78
2022/03/17 01:03:33;;;;;;;36.70;33.30;;;;;;;10.18;75.11;101828.41;1044385;28;20299;-79
2022/03/17 01:04:05;;;;;;;37.90;33.90;;;;;;;10.23;75.08;101821.72;1044105;28;20303;-76
2022/03/17 01:04:36;;;;;;;34.85;31.27;;;;;;;10.23;74.98;101829.69;1044239;28;20846;-78
2022/03/17 01:05:08;;;;;;;37.00;33.28;;;;;;;10.16;75.44;101822.44;1041865;28;20326;-79
2022/03/17 01:05:41;;;;;;;35.55;32.08;;;;;;;10.13;75.43;101822.78;1043870;28;20314;-78
2022/03/17 01:06:13;;;;;;;37.97;33.75;;;;;;;10.13;76.11;101822.78;1044596;28;21588;-78
2022/03/17 01:06:45;;;;;;;38.17;34.20;;;;;;;10.08;76.80;101830.53;1044031;28;20374;-77
2022/03/17 01:07:16;;;;;;;36.95;33.33;;;;;;;10.07;76.99;101823.56;1044141;28;20759;-78
2022/03/17 01:07:50;;;;;;;36.58;32.88;;;;;;;10.07;76.78;101820.06;1044111;28;20378;-78
2022/03/17 01:08:21;;;;;;;37.80;33.85;;;;;;;10.09;76.34;101832.19;1044122;28;20299;-79
2022/03/17 01:08:53;;;;;;;36.70;32.88;;;;;;;10.11;76.24;101822.16;1040992;28;20331;-78
2022/03/17 01:09:28;;;;;;;37.92;34.13;;;;;;;10.10;76.16;101823.19;1044159;28;20299;-79
2022/03/17 01:10:00;;;;;;;36.30;32.47;;;;;;;10.15;75.50;101820.78;1043948;28;20322;-78
2022/03/17 01:10:32;;;;;;;35.90;32.03;;;;;;;10.11;76.14;101819.50;1040085;28;20390;-79
2022/03/17 01:11:04;;;;;;;37.70;33.80;;;;;;;10.14;76.46;101821.00;1035725;28;20316;-78
2022/03/17 01:11:36;;;;;;;36.38;32.58;;;;;;;10.17;76.11;101820.59;1036005;28;20300;-78
2022/03/17 01:12:08;;;;;;;36.08;32.53;;;;;;;10.13;75.65;101812.16;1037429;28;20301;-79
2022/03/17 01:12:39;;;;;;;35.95;32.28;;;;;;;10.08;76.39;101814.56;1044330;28;20849;-77
2022/03/17 01:13:11;;;;;;;38.50;34.60;;;;;;;10.01;76.13;101819.00;1044540;28;20779;-78
2022/03/17 01:13:43;;;;;;;36.85;32.97;;;;;;;10.01;76.15;101812.84;1044602;28;20310;-78
2022/03/17 01:14:15;;;;;;;37.72;34.13;;;;;;;10.00;76.62;101817.34;1044294;28;20299;-79
2022/03/17 01:14:47;;;;;;;37.70;33.63;;;;;;;10.03;76.62;101814.31;1044490;28;20314;-78
2022/03/17 01:15:20;;;;;;;39.20;35.10;;;;;;;9.97;76.72;101831.03;1044194;28;20303;-78
2022/03/17 01:15:52;;;;;;;36.85;33.17;;;;;;;10.00;77.05;101822.66;1044218;28;20667;-78
2022/03/17 01:16:24;;;;;;;38.13;34.22;;;;;;;9.98;76.72;101824.69;1044122;28;20381;-77
2022/03/17 01:16:56;;;;;;;38.38;34.58;;;;;;;9.99;76.59;101821.03;1043395;28;20854;-78
2022/03/17 01:17:28;;;;;;;37.78;33.88;;;;;;;10.05;76.89;101825.59;1040889;28;20349;-78
2022/03/17 01:17:59;;;;;;;37.85;33.70;;;;;;;10.06;76.39;101818.41;1039999;28;20296;-78
2022/03/17 01:18:31;;;;;;;36.70;33.17;;;;;;;10.08;76.48;101824.38;1040087;28;20405;-78
2022/03/17 01:19:05;;;;;;;37.63;33.47;;;;;;;10.05;76.80;101812.28;1040821;28;20303;-78
2022/03/17 01:19:37;;;;;;;38.35;34.28;;;;;;;10.03;76.48;101822.28;1044272;28;20663;-79
2022/03/17 01:20:09;;;;;;;37.20;33.47;;;;;;;10.06;75.96;101824.56;1044304;28;20659;-77
2022/03/17 01:20:41;;;;;;;40.08;35.90;;;;;;;10.09;76.90;101826.84;1044186;28;20295;-78
2022/03/17 01:21:12;;;;;;;38.25;34.33;;;;;;;9.99;77.13;101825.53;1044140;28;20341;-78
2022/03/17 01:21:45;;;;;;;38.50;34.40;;;;;;;10.00;77.17;101821.84;1041742;28;20300;-78
2022/03/17 01:22:17;;;;;;;36.75;32.38;;;;;;;9.98;76.88;101823.88;1039802;28;20299;-78
2022/03/17 01:22:48;;;;;;;38.22;34.22;;;;;;;9.98;76.81;101829.19;1042592;28;20284;-78
2022/03/17 01:23:20;;;;;;;39.97;35.95;;;;;;;9.97;77.19;101824.88;1043950;28;20659;-78
2022/03/17 01:23:51;;;;;;;38.85;34.90;;;;;;;10.02;76.19;101820.63;1044152;28;20299;-78
2022/03/17 01:24:23;;;;;;;37.95;33.97;;;;;;;9.99;76.53;101821.03;1044173;28;20299;-78
2022/03/17 01:24:55;;;;;;;34.75;31.42;;;;;;;9.98;77.08;101821.22;1044435;28;20295;-78
2022/03/17 01:25:27;;;;;;;38.70;34.60;;;;;;;10.07;76.44;101825.41;1044423;28;20292;-78
2022/03/17 01:25:58;;;;;;;43.80;34.97;;;;;;;10.04;76.22;101823.94;1044419;28;21044;-78
2022/03/17 01:26:30;;;;;;;38.15;34.15;;;;;;;9.98;75.99;101822.03;1044539;28;20295;-79
2022/03/17 01:27:02;;;;;;;37.35;33.70;;;;;;;9.95;76.68;101819.75;1044263;28;20670;-78
2022/03/17 01:27:34;;;;;;;37.75;33.80;;;;;;;9.98;76.71;101822.03;1044291;28;20295;-78
2022/03/17 01:28:06;;;;;;;37.13;33.05;;;;;;;10.03;76.64;101816.13;1044659;28;20295;-78
2022/03/17 01:28:38;;;;;;;38.90;34.85;;;;;;;10.09;76.25;101810.88;1044318;28;20311;-78
2022/03/17 01:29:10;;;;;;;37.33;33.60;;;;;;;10.02;76.10;101815.31;1044259;28;20307;-79
2022/03/17 01:29:43;;;;;;;38.05;34.40;;;;;;;10.05;76.31;101819.44;1044249;28;20290;-78
2022/03/17 01:30:15;;;;;;;37.15;33.33;;;;;;;10.02;76.48;101817.97;1044237;28;20302;-78
2022/03/17 01:30:47;;;;;;;38.60;34.53;;;;;;;9.94;76.80;101810.13;1043748;28;20763;-79
2022/03/17 01:31:23;;;;;;;39.22;35.38;;;;;;;9.98;76.61;101814.06;1044231;28;20456;-78
2022/03/17 01:31:55;;;;;;;37.13;33.22;;;;;;;10.06;76.61;101816.59;1044082;28;20301;-78
2022/03/17 01:32:26;;;;;;;36.78;33.20;;;;;;;10.01;76.22;101818.16;1044647;28;20295;-78
2022/03/17 01:32:58;;;;;;;38.55;34.63;;;;;;;10.00;76.15;101806.69;1044421;28;20303;-78
2022/03/17 01:33:30;;;;;;;39.00;35.03;;;;;;;9.99;76.75;101821.03;1043774;28;20307;-78
2022/03/17 01:34:05;;;;;;;38.10;34.17;;;;;;;9.99;77.07;101814.88;1044300;28;20306;-78
2022/03/17 01:34:36;;;;;;;39.65;35.65;;;;;;;9.96;77.22;101815.25;1043638;28;20304;-78
2022/03/17 01:35:09;;;;;;;37.92;34.05;;;;;;;9.94;76.73;101815.44;1044193;28;20302;-79
2022/03/17 01:35:40;;;;;;;38.15;34.15;;;;;;;9.99;77.23;101815.69;1044105;28;20291;-78
2022/03/17 01:36:12;;;;;;;39.05;35.15;;;;;;;9.96;77.16;101816.06;1044594;28;20314;-78
2022/03/17 01:36:44;;;;;;;37.40;33.78;;;;;;;9.98;77.21;101814.06;1044342;28;20314;-78
2022/03/17 01:37:15;;;;;;;37.85;34.15;;;;;;;9.97;77.06;101809.75;1043825;28;20891;-78
2022/03/17 01:37:47;;;;;;;37.58;33.80;;;;;;;9.92;77.10;101814.81;1044283;28;20298;-78
2022/03/17 01:38:19;;;;;;;37.78;33.85;;;;;;;9.98;76.58;101814.06;1043833;28;20299;-78
2022/03/17 01:38:50;;;;;;;36.33;32.78;;;;;;;9.95;77.25;101809.09;1044179;28;20311;-78
2022/03/17 01:39:23;;;;;;;38.05;34.08;;;;;;;10.01;76.44;101816.34;1044554;28;20299;-78
2022/03/17 01:39:54;;;;;;;36.33;32.60;;;;;;;10.08;76.28;101819.88;1044191;28;20318;-78
2022/03/17 01:40:26;;;;;;;38.05;34.33;;;;;;;10.07;76.74;101818.22;1043892;28;20303;-79
2022/03/17 01:40:58;;;;;;;37.80;33.80;;;;;;;10.02;75.97;101814.50;1036184;28;20304;-78
2022/03/17 01:41:30;;;;;;;40.15;36.25;;;;;;;10.02;76.54;101815.31;1035927;28;20292;-78
2022/03/17 01:42:03;;;;;;;37.75;33.95;;;;;;;9.98;76.78;101813.22;1035842;28;20296;-78
2022/03/17 01:42:35;;;;;;;37.95;33.78;;;;;;;10.01;76.62;101812.84;1037142;28;20304;-79
2022/03/17 01:43:07;;;;;;;37.60;33.72;;;;;;;10.05;76.65;101809.63;1040133;28;20316;-78
2022/03/17 01:43:38;;;;;;;39.38;33.78;;;;;;;9.99;76.20;101810.38;1040540;28;20308;-78
2022/03/17 01:44:10;;;;;;;40.25;35.70;;;;;;;10.01;76.27;101813.66;1043945;28;20299;-78
2022/03/17 01:44:42;;;;;;;40.90;34.53;;;;;;;10.00;77.08;101806.69;1040645;28;20299;-78
2022/03/17 01:45:15;;;;;;;38.88;34.80;;;;;;;10.01;76.46;101808.34;1039938;28;20351;-78
2022/03/17 01:45:47;;;;;;;37.25;33.45;;;;;;;9.98;76.92;101800.75;1039791;28;20338;-78
2022/03/17 01:46:18;;;;;;;37.95;33.75;;;;;;;10.01;76.13;101813.66;1040324;28;20398;-78
2022/03/17 01:47:47;;;;;;;36.60;32.13;;;;;;;9.95;76.35;101814.44;1044109;28;20288;-79
2022/03/17 01:48:21;;;;;;;36.83;33.13;;;;;;;9.98;76.15;101808.72;1044054;28;20303;-78
2022/03/17 01:48:53;;;;;;;35.55;31.73;;;;;;;9.94;76.28;101806.63;1043958;28;20701;-79
2022/03/17 01:49:25;;;;;;;37.97;33.90;;;;;;;9.91;76.60;101808.66;1043903;28;20295;-78
2022/03/17 01:50:07;;;;;;;35.05;31.45;;;;;;;9.97;76.92;101804.41;1040159;28;20302;-79
2022/03/17 01:50:39;;;;;;;36.80;32.13;;;;;;;9.99;76.61;101809.56;1042562;28;20292;-78
2022/03/17 01:51:13;;;;;;;38.42;32.58;;;;;;;9.97;76.71;101807.06;1044198;28;20302;-78
2022/03/17 01:51:48;;;;;;;35.35;29.80;;;;;;;9.99;76.73;101807.72;1042238;28;20308;-78
2022/03/17 01:52:20;;;;;;;42.35;32.92;;;;;;;10.06;75.97;101800.63;1043949;28;20310;-78
2022/03/17 01:52:52;;;;;;;35.17;31.38;;;;;;;10.06;76.27;101797.94;1043940;28;20686;-78
2022/03/17 01:53:23;;;;;;;38.30;31.73;;;;;;;10.09;75.53;101799.41;1044389;28;20292;-78
2022/03/17 01:53:55;;;;;;;34.05;30.35;;;;;;;10.08;76.35;101803.91;1044121;28;20313;-78
2022/03/17 01:54:28;;;;;;;35.53;30.35;;;;;;;10.02;76.30;101801.19;1044212;28;20659;-78
2022/03/17 01:55:10;;;;;;;33.22;29.80;;;;;;;9.92;76.24;101804.16;1043861;28;20760;-78
2022/03/17 01:55:42;;;;;;;37.60;30.95;;;;;;;9.96;76.29;101808.09;1040115;28;20037;-79
2022/03/17 01:56:15;;;;;;;34.33;30.73;;;;;;;10.02;75.50;101803.84;1037255;28;20300;-78
2022/03/17 01:56:47;;;;;;;35.97;32.10;;;;;;;10.00;75.53;101801.38;1037881;28;20308;-79
2022/03/17 01:57:20;;;;;;;47.03;32.70;;;;;;;9.97;76.19;101801.75;1040661;28;20299;-78
2022/03/17 01:57:51;;;;;;;35.65;31.88;;;;;;;9.94;76.21;101801.31;1039876;28;20847;-78
2022/03/17 01:58:24;;;;;;;35.70;31.80;;;;;;;9.97;76.08;101801.75;1040126;28;20450;-78
2022/03/17 01:58:55;;;;;;;36.78;32.03;;;;;;;10.06;76.03;101800.63;1043889;28;20302;-78
2022/03/17 01:59:27;;;;;;;37.97;31.40;;;;;;;10.13;75.70;101801.50;1036573;28;20304;-78
2022/03/17 01:59:59;;;;;;;37.13;33.33;;;;;;;10.13;75.76;101801.50;1035528;28;20320;-77
2022/03/17 02:00:31;;;;;;;37.35;31.98;;;;;;;10.13;75.75;101801.50;1035721;28;20296;-78
2022/03/17 02:01:05;;;;;;;35.83;32.03;;;;;;;10.02;75.99;101807.34;1037495;28;20301;-78
2022/03/17 02:01:38;;;;;;;37.72;33.65;;;;;;;10.05;76.75;101801.63;1044192;28;20299;-77
2022/03/17 02:02:12;;;;;;;36.97;32.95;;;;;;;10.10;76.29;101801.88;1044204;28;20374;-78
2022/03/17 02:02:47;;;;;;;36.83;31.42;;;;;;;10.03;75.99;101806.31;1043895;28;20334;-78
2022/03/17 02:03:19;;;;;;;34.63;31.02;;;;;;;10.06;76.22;101805.94;1039686;28;20811;-78
2022/03/17 02:03:53;;;;;;;38.53;32.45;;;;;;;10.01;76.64;101796.88;1041449;28;20389;-79
2022/03/17 02:04:25;;;;;;;37.25;33.17;;;;;;;10.04;76.46;101802.66;1043744;28;20801;-78
2022/03/17 02:04:57;;;;;;;35.60;31.70;;;;;;;10.08;76.33;101803.09;1044166;28;20838;-78
2022/03/17 02:05:29;;;;;;;37.13;33.08;;;;;;;10.07;76.40;101796.94;1044159;28;20299;-78
2022/03/17 02:06:00;;;;;;;36.70;33.03;;;;;;;10.07;76.00;101793.44;1044662;28;20283;-78
2022/03/17 02:06:32;;;;;;;36.40;32.58;;;;;;;10.13;75.67;101806.00;1044010;28;20306;-78
2022/03/17 02:07:05;;;;;;;38.28;32.92;;;;;;;10.11;75.13;101797.38;1043869;28;20306;-78
2022/03/17 02:07:49;;;;;;;36.92;33.13;;;;;;;10.18;74.91;101804.44;1044002;28;20299;-78
2022/03/17 02:08:20;;;;;;;36.70;32.78;;;;;;;10.13;75.08;101804.16;1039846;28;20300;-78
2022/03/17 02:08:52;;;;;;;35.17;31.30;;;;;;;10.17;75.40;101801.97;1035751;28;20758;-78
2022/03/17 02:09:26;;;;;;;39.08;34.72;;;;;;;10.12;75.34;101799.84;1033992;28;20530;-78
2022/03/17 02:09:59;;;;;;;37.95;34.10;;;;;;;10.16;74.93;101797.66;1037815;28;20367;-78
2022/03/17 02:13:08;;;;;;;36.78;33.00;;;;;;;10.12;75.71;101809.69;1040678;28;20296;-78
2022/03/17 02:13:08;;;;;;;33.65;30.02;;;;;;;10.09;74.81;101805.56;1043700;28;20310;-78
2022/03/17 02:13:41;;;;;;;35.10;30.52;;;;;;;10.02;74.96;101804.66;1043885;28;20041;-78
2022/03/17 02:14:22;;;;;;;38.40;32.42;;;;;;;10.02;75.43;101810.00;1044211;28;20291;-78
2022/03/17 02:14:59;;;;;;;34.33;30.55;;;;;;;10.11;75.77;101803.53;1044060;28;20302;-79
2022/03/17 02:15:34;;;;;;;38.92;32.33;;;;;;;10.08;75.06;101806.56;1043680;28;20299;-78
2022/03/17 02:16:07;;;;;;;38.67;31.55;;;;;;;10.10;75.61;101803.72;1039754;28;20300;-78
2022/03/17 02:16:38;;;;;;;36.28;31.60;;;;;;;10.07;75.44;101806.75;1041880;28;20315;-78
2022/03/17 02:17:10;;;;;;;36.60;31.52;;;;;;;10.09;75.88;101805.56;1039570;28;20973;-78
2022/03/17 02:17:43;;;;;;;36.60;32.75;;;;;;;10.07;75.67;101812.91;1040794;28;20815;-78
2022/03/17 02:18:16;;;;;;;37.47;32.25;;;;;;;10.12;75.78;101805.19;1044209;28;20852;-77
2022/03/17 02:18:48;;;;;;;38.63;34.58;;;;;;;10.09;75.66;101812.72;1043630;28;20373;-78
2022/03/17 02:19:23;;;;;;;37.08;33.17;;;;;;;10.13;75.46;101806.81;1044324;28;20853;-79
2022/03/17 02:19:55;;;;;;;37.28;32.92;;;;;;;10.14;75.12;101811.16;1044022;28;20303;-78
2022/03/17 02:20:26;;;;;;;39.97;35.67;;;;;;;10.20;74.72;101806.91;1044050;28;20311;-78
2022/03/17 02:20:59;;;;;;;41.53;35.10;;;;;;;10.19;74.02;101808.75;1041856;28;20307;-78
2022/03/17 02:21:34;;;;;;;36.50;32.83;;;;;;;10.15;74.55;101810.16;1043732;28;20303;-78
2022/03/17 02:22:07;;;;;;;37.83;33.85;;;;;;;10.20;74.23;101813.09;1039575;28;20300;-78
2022/03/17 02:22:49;;;;;;;37.80;33.72;;;;;;;10.27;74.85;101807.00;1039716;28;20362;-78
2022/03/17 02:25:57;;;;;;;36.17;32.08;;;;;;;10.26;75.11;101800.03;1039785;28;20052;-77
2022/03/17 02:26:30;;;;;;;36.80;32.90;;;;;;;10.23;74.44;101803.06;1037573;28;20301;-77
2022/03/17 02:27:03;;;;;;;37.53;32.13;;;;;;;10.23;74.70;101803.91;1035022;28;20300;-77
2022/03/17 02:27:41;;;;;;;36.55;32.28;;;;;;;10.22;75.00;101802.25;1035399;28;20292;-77
2022/03/17 02:28:14;;;;;;;35.40;31.67;;;;;;;10.19;75.40;101799.94;1033408;28;20681;-76
2022/03/17 02:28:46;;;;;;;37.70;33.75;;;;;;;10.25;75.18;101809.03;1037476;28;20296;-77
2022/03/17 02:29:18;;;;;;;37.72;33.70;;;;;;;10.25;74.53;101798.38;1041270;28;20866;-77
2022/03/17 02:29:50;;;;;;;40.88;34.40;;;;;;;10.29;74.42;101799.66;1043897;28;20295;-77
2022/03/17 02:30:22;;;;;;;36.33;32.63;;;;;;;10.33;74.90;101796.41;1043997;28;20314;-77
2022/03/17 02:30:55;;;;;;;39.03;34.97;;;;;;;10.23;74.45;101795.09;1043784;28;20318;-77
2022/03/17 02:31:26;;;;;;;38.88;34.67;;;;;;;10.19;75.26;101806.09;1039603;28;20348;-77
2022/03/17 02:31:58;;;;;;;38.40;34.40;;;;;;;10.24;75.61;101791.41;1035728;28;20300;-77
2022/03/17 02:32:30;;;;;;;37.92;33.15;;;;;;;10.27;74.90;101799.00;1036231;28;20303;-77
2022/03/17 02:33:05;;;;;;;37.45;32.55;;;;;;;10.24;75.40;101802.06;1040167;28;20826;-77
2022/03/17 02:33:40;;;;;;;38.17;34.20;;;;;;;10.18;75.94;101796.44;1039759;28;20299;-76
2022/03/17 02:34:11;;;;;;;39.83;35.22;;;;;;;10.20;75.58;101802.44;1039866;28;20299;-77